sensor_id;sensor_type;location;lat;lon;timestamp;temperature;humidity
39957;DHT22;48483;44.640;7.494;2023-04-12T00:00:15;13.20;99.90
39957;DHT22;48483;44.640;7.494;2023-04-12T00:02:43;13.20;99.90
39957;DHT22;48483;44.640;7.494;2023-04-12T00:05:11;13.10;99.90
39957;DHT22;48483;44.640;7.494;2023-04-12T00:07:39;13.10;99.90
39957;DHT22;48483;44.640;7.494;2023-04-12T00:10:06;13.10;99.90
39957;DHT22;48483;44.640;7.494;2023-04-12T00:12:33;13.10;99.90
39957;DHT22;48483;44.640;7.494;2023-04-12T00:15:00;13.10;99.90
39957;DHT22;48483;44.640;7.494;2023-04-12T00:17:27;13.10;99.90
39957;DHT22;48483;44.640;7.494;2023-04-12T00:19:53;13.10;99.90
39957;DHT22;48483;44.640;7.494;2023-04-12T00:22:21;13.00;99.90
39957;DHT22;48483;44.640;7.494;2023-04-12T00:24:48;13.00;99.90
39957;DHT22;48483;44.640;7.494;2023-04-12T00:27:15;13.00;99.90
39957;DHT22;48483;44.640;7.494;2023-04-12T00:29:42;13.00;99.90
39957;DHT22;48483;44.640;7.494;2023-04-12T00:32:09;13.10;99.90
39957;DHT22;48483;44.640;7.494;2023-04-12T00:34:36;13.10;99.90
39957;DHT22;48483;44.640;7.494;2023-04-12T00:37:02;13.10;99.90
39957;DHT22;48483;44.640;7.494;2023-04-12T00:39:31;13.10;99.90
39957;DHT22;48483;44.640;7.494;2023-04-12T00:42:02;13.00;99.90
39957;DHT22;48483;44.640;7.494;2023-04-12T00:44:28;12.80;99.90
39957;DHT22;48483;44.640;7.494;2023-04-12T00:46:56;12.70;99.90
39957;DHT22;48483;44.640;7.494;2023-04-12T00:49:23;12.60;99.90
39957;DHT22;48483;44.640;7.494;2023-04-12T00:51:50;12.60;99.90
39957;DHT22;48483;44.640;7.494;2023-04-12T00:54:16;12.60;99.90
39957;DHT22;48483;44.640;7.494;2023-04-12T00:56:44;12.50;99.90
39957;DHT22;48483;44.640;7.494;2023-04-12T00:59:12;12.40;99.90
39957;DHT22;48483;44.640;7.494;2023-04-12T01:01:39;12.30;99.90
39957;DHT22;48483;44.640;7.494;2023-04-12T01:04:06;12.30;99.90
39957;DHT22;48483;44.640;7.494;2023-04-12T01:06:41;12.20;99.90
39957;DHT22;48483;44.640;7.494;2023-04-12T01:09:18;12.20;99.90
39957;DHT22;48483;44.640;7.494;2023-04-12T01:11:54;12.30;99.90
39957;DHT22;48483;44.640;7.494;2023-04-12T01:14:30;12.30;99.90
39957;DHT22;48483;44.640;7.494;2023-04-12T01:17:05;12.30;99.90
39957;DHT22;48483;44.640;7.494;2023-04-12T01:19:46;12.30;99.90
39957;DHT22;48483;44.640;7.494;2023-04-12T01:22:37;12.40;99.90
39957;DHT22;48483;44.640;7.494;2023-04-12T01:25:20;12.40;99.90
39957;DHT22;48483;44.640;7.494;2023-04-12T01:27:54;12.40;99.90
39957;DHT22;48483;44.640;7.494;2023-04-12T01:30:26;12.40;99.90
39957;DHT22;48483;44.640;7.494;2023-04-12T01:32:55;12.30;99.90
39957;DHT22;48483;44.640;7.494;2023-04-12T01:35:25;12.30;99.90
39957;DHT22;48483;44.640;7.494;2023-04-12T01:37:53;12.30;99.90
39957;DHT22;48483;44.640;7.494;2023-04-12T01:40:20;12.40;99.90
39957;DHT22;48483;44.640;7.494;2023-04-12T01:42:47;12.40;99.90
39957;DHT22;48483;44.640;7.494;2023-04-12T01:45:15;12.40;99.90
39957;DHT22;48483;44.640;7.494;2023-04-12T01:47:42;12.40;99.90
39957;DHT22;48483;44.640;7.494;2023-04-12T01:50:16;12.40;99.90
39957;DHT22;48483;44.640;7.494;2023-04-12T01:52:53;12.40;99.90
39957;DHT22;48483;44.640;7.494;2023-04-12T01:55:23;12.30;99.90
39957;DHT22;48483;44.640;7.494;2023-04-12T01:57:51;12.30;99.90
39957;DHT22;48483;44.640;7.494;2023-04-12T02:00:20;12.20;99.90
39957;DHT22;48483;44.640;7.494;2023-04-12T02:02:47;12.10;99.90
39957;DHT22;48483;44.640;7.494;2023-04-12T02:05:14;12.10;99.90
39957;DHT22;48483;44.640;7.494;2023-04-12T02:07:41;12.10;99.90
39957;DHT22;48483;44.640;7.494;2023-04-12T02:10:12;12.00;99.90
39957;DHT22;48483;44.640;7.494;2023-04-12T02:12:39;12.10;99.90
39957;DHT22;48483;44.640;7.494;2023-04-12T02:15:07;12.10;99.90
39957;DHT22;48483;44.640;7.494;2023-04-12T02:17:35;12.10;99.90
39957;DHT22;48483;44.640;7.494;2023-04-12T02:20:03;12.10;99.90
39957;DHT22;48483;44.640;7.494;2023-04-12T02:22:35;12.10;99.90
39957;DHT22;48483;44.640;7.494;2023-04-12T02:25:02;12.10;99.90
39957;DHT22;48483;44.640;7.494;2023-04-12T02:27:29;12.10;99.90
39957;DHT22;48483;44.640;7.494;2023-04-12T02:29:55;12.10;99.90
39957;DHT22;48483;44.640;7.494;2023-04-12T02:32:24;12.20;99.90
39957;DHT22;48483;44.640;7.494;2023-04-12T02:34:52;12.20;99.90
39957;DHT22;48483;44.640;7.494;2023-04-12T02:37:19;12.20;99.90
39957;DHT22;48483;44.640;7.494;2023-04-12T02:39:47;12.20;99.90
39957;DHT22;48483;44.640;7.494;2023-04-12T02:42:15;12.20;99.90
39957;DHT22;48483;44.640;7.494;2023-04-12T02:44:42;12.20;99.90
39957;DHT22;48483;44.640;7.494;2023-04-12T02:47:13;12.30;99.90
39957;DHT22;48483;44.640;7.494;2023-04-12T02:49:44;12.30;99.90
39957;DHT22;48483;44.640;7.494;2023-04-12T02:52:14;12.30;99.90
39957;DHT22;48483;44.640;7.494;2023-04-12T02:54:56;12.30;99.90
39957;DHT22;48483;44.640;7.494;2023-04-12T02:57:23;12.30;99.90
39957;DHT22;48483;44.640;7.494;2023-04-12T02:59:50;12.30;99.90
39957;DHT22;48483;44.640;7.494;2023-04-12T03:02:37;12.30;99.90
39957;DHT22;48483;44.640;7.494;2023-04-12T03:05:07;12.30;99.90
39957;DHT22;48483;44.640;7.494;2023-04-12T03:07:40;12.30;99.90
39957;DHT22;48483;44.640;7.494;2023-04-12T03:10:08;12.30;99.90
39957;DHT22;48483;44.640;7.494;2023-04-12T03:12:41;12.30;99.90
39957;DHT22;48483;44.640;7.494;2023-04-12T03:15:14;12.30;99.90
39957;DHT22;48483;44.640;7.494;2023-04-12T03:17:45;12.30;99.90
39957;DHT22;48483;44.640;7.494;2023-04-12T03:20:13;12.30;99.90
39957;DHT22;48483;44.640;7.494;2023-04-12T03:22:48;12.30;99.90
39957;DHT22;48483;44.640;7.494;2023-04-12T03:25:15;12.30;99.90
39957;DHT22;48483;44.640;7.494;2023-04-12T03:27:51;12.30;99.90
39957;DHT22;48483;44.640;7.494;2023-04-12T03:30:21;12.20;99.90
39957;DHT22;48483;44.640;7.494;2023-04-12T03:32:48;12.00;99.90
39957;DHT22;48483;44.640;7.494;2023-04-12T03:35:15;12.00;99.90
39957;DHT22;48483;44.640;7.494;2023-04-12T03:37:42;11.90;99.90
39957;DHT22;48483;44.640;7.494;2023-04-12T03:40:12;11.90;99.90
39957;DHT22;48483;44.640;7.494;2023-04-12T03:42:43;11.90;99.90
39957;DHT22;48483;44.640;7.494;2023-04-12T03:45:12;11.90;99.90
39957;DHT22;48483;44.640;7.494;2023-04-12T03:47:42;11.80;99.90
39957;DHT22;48483;44.640;7.494;2023-04-12T03:50:10;11.80;99.90
39957;DHT22;48483;44.640;7.494;2023-04-12T03:52:37;11.80;99.90
39957;DHT22;48483;44.640;7.494;2023-04-12T03:55:07;11.80;99.90
39957;DHT22;48483;44.640;7.494;2023-04-12T03:57:35;11.80;99.90
39957;DHT22;48483;44.640;7.494;2023-04-12T04:00:04;11.80;99.90
39957;DHT22;48483;44.640;7.494;2023-04-12T04:02:44;11.90;99.90
39957;DHT22;48483;44.640;7.494;2023-04-12T04:05:14;11.90;99.90
39957;DHT22;48483;44.640;7.494;2023-04-12T04:07:43;11.90;99.90
39957;DHT22;48483;44.640;7.494;2023-04-12T04:10:11;11.90;99.90
39957;DHT22;48483;44.640;7.494;2023-04-12T04:12:42;11.90;99.90
39957;DHT22;48483;44.640;7.494;2023-04-12T04:15:12;11.90;99.90
39957;DHT22;48483;44.640;7.494;2023-04-12T04:17:39;11.90;99.90
39957;DHT22;48483;44.640;7.494;2023-04-12T04:20:09;11.80;99.90
39957;DHT22;48483;44.640;7.494;2023-04-12T04:22:39;11.80;99.90
39957;DHT22;48483;44.640;7.494;2023-04-12T04:25:08;11.80;99.90
39957;DHT22;48483;44.640;7.494;2023-04-12T04:27:38;11.80;99.90
39957;DHT22;48483;44.640;7.494;2023-04-12T04:30:09;11.80;99.90
39957;DHT22;48483;44.640;7.494;2023-04-12T04:32:40;11.80;99.90
39957;DHT22;48483;44.640;7.494;2023-04-12T04:35:08;11.80;99.90
39957;DHT22;48483;44.640;7.494;2023-04-12T04:37:47;11.80;99.90
39957;DHT22;48483;44.640;7.494;2023-04-12T04:40:17;11.70;99.90
39957;DHT22;48483;44.640;7.494;2023-04-12T04:42:46;11.70;99.90
39957;DHT22;48483;44.640;7.494;2023-04-12T04:45:23;11.70;99.90
39957;DHT22;48483;44.640;7.494;2023-04-12T04:47:53;11.70;99.90
39957;DHT22;48483;44.640;7.494;2023-04-12T04:50:20;11.70;99.90
39957;DHT22;48483;44.640;7.494;2023-04-12T04:52:47;11.70;99.90
39957;DHT22;48483;44.640;7.494;2023-04-12T04:55:14;11.70;99.90
39957;DHT22;48483;44.640;7.494;2023-04-12T04:57:44;11.60;99.90
39957;DHT22;48483;44.640;7.494;2023-04-12T05:00:12;11.60;99.90
39957;DHT22;48483;44.640;7.494;2023-04-12T05:02:43;11.60;99.90
39957;DHT22;48483;44.640;7.494;2023-04-12T05:05:14;11.60;99.90
39957;DHT22;48483;44.640;7.494;2023-04-12T05:07:45;11.50;99.90
39957;DHT22;48483;44.640;7.494;2023-04-12T05:10:12;11.50;99.90
39957;DHT22;48483;44.640;7.494;2023-04-12T05:12:41;11.50;99.90
39957;DHT22;48483;44.640;7.494;2023-04-12T05:15:08;11.60;99.90
39957;DHT22;48483;44.640;7.494;2023-04-12T05:17:35;11.60;99.90
39957;DHT22;48483;44.640;7.494;2023-04-12T05:20:04;11.50;99.90
39957;DHT22;48483;44.640;7.494;2023-04-12T05:22:37;11.50;99.90
39957;DHT22;48483;44.640;7.494;2023-04-12T05:25:05;11.60;99.90
39957;DHT22;48483;44.640;7.494;2023-04-12T05:27:37;11.60;99.90
39957;DHT22;48483;44.640;7.494;2023-04-12T05:30:07;11.60;99.90
39957;DHT22;48483;44.640;7.494;2023-04-12T05:32:34;11.60;99.90
39957;DHT22;48483;44.640;7.494;2023-04-12T05:35:02;11.60;99.90
39957;DHT22;48483;44.640;7.494;2023-04-12T05:37:29;11.70;99.90
39957;DHT22;48483;44.640;7.494;2023-04-12T05:39:56;11.70;99.90
39957;DHT22;48483;44.640;7.494;2023-04-12T05:42:23;11.70;99.90
39957;DHT22;48483;44.640;7.494;2023-04-12T05:44:49;11.80;99.90
39957;DHT22;48483;44.640;7.494;2023-04-12T05:47:16;11.80;99.90
39957;DHT22;48483;44.640;7.494;2023-04-12T05:49:43;11.90;99.90
39957;DHT22;48483;44.640;7.494;2023-04-12T05:52:12;11.90;99.90
39957;DHT22;48483;44.640;7.494;2023-04-12T05:54:39;11.90;99.90
39957;DHT22;48483;44.640;7.494;2023-04-12T05:57:10;12.00;99.90
39957;DHT22;48483;44.640;7.494;2023-04-12T05:59:38;12.00;99.90
39957;DHT22;48483;44.640;7.494;2023-04-12T06:02:05;12.00;99.90
39957;DHT22;48483;44.640;7.494;2023-04-12T06:04:32;12.00;99.90
39957;DHT22;48483;44.640;7.494;2023-04-12T06:06:59;12.00;99.90
39957;DHT22;48483;44.640;7.494;2023-04-12T06:09:28;11.90;99.90
39957;DHT22;48483;44.640;7.494;2023-04-12T06:11:54;11.90;99.90
39957;DHT22;48483;44.640;7.494;2023-04-12T06:14:22;11.90;99.90
39957;DHT22;48483;44.640;7.494;2023-04-12T06:16:49;11.90;99.90
39957;DHT22;48483;44.640;7.494;2023-04-12T06:19:16;11.90;99.90
39957;DHT22;48483;44.640;7.494;2023-04-12T06:21:42;12.00;99.90
39957;DHT22;48483;44.640;7.494;2023-04-12T06:24:09;12.00;99.90
39957;DHT22;48483;44.640;7.494;2023-04-12T06:26:37;12.00;99.90
39957;DHT22;48483;44.640;7.494;2023-04-12T06:29:04;12.00;99.90
39957;DHT22;48483;44.640;7.494;2023-04-12T06:31:31;12.00;99.90
39957;DHT22;48483;44.640;7.494;2023-04-12T06:33:58;12.00;99.90
39957;DHT22;48483;44.640;7.494;2023-04-12T06:36:26;12.10;99.90
39957;DHT22;48483;44.640;7.494;2023-04-12T06:38:52;12.10;99.90
39957;DHT22;48483;44.640;7.494;2023-04-12T06:41:20;12.10;99.90
39957;DHT22;48483;44.640;7.494;2023-04-12T06:43:55;12.20;99.90
39957;DHT22;48483;44.640;7.494;2023-04-12T06:46:25;12.20;99.90
39957;DHT22;48483;44.640;7.494;2023-04-12T06:48:51;12.30;99.90
39957;DHT22;48483;44.640;7.494;2023-04-12T06:51:18;12.30;99.90
39957;DHT22;48483;44.640;7.494;2023-04-12T06:53:45;12.30;99.90
39957;DHT22;48483;44.640;7.494;2023-04-12T06:56:11;12.30;99.90
39957;DHT22;48483;44.640;7.494;2023-04-12T06:58:38;12.30;99.90
39957;DHT22;48483;44.640;7.494;2023-04-12T07:01:06;12.30;99.90
39957;DHT22;48483;44.640;7.494;2023-04-12T07:03:33;12.30;99.90
39957;DHT22;48483;44.640;7.494;2023-04-12T07:06:00;12.40;99.90
39957;DHT22;48483;44.640;7.494;2023-04-12T07:08:28;12.40;99.90
39957;DHT22;48483;44.640;7.494;2023-04-12T07:10:54;12.40;99.90
39957;DHT22;48483;44.640;7.494;2023-04-12T07:13:21;12.50;99.90
39957;DHT22;48483;44.640;7.494;2023-04-12T07:15:48;12.50;99.90
39957;DHT22;48483;44.640;7.494;2023-04-12T07:18:34;12.60;99.90
39957;DHT22;48483;44.640;7.494;2023-04-12T07:21:01;12.50;99.90
39957;DHT22;48483;44.640;7.494;2023-04-12T07:23:27;12.60;99.90
39957;DHT22;48483;44.640;7.494;2023-04-12T07:25:58;12.70;99.90
39957;DHT22;48483;44.640;7.494;2023-04-12T07:28:25;12.70;99.90
39957;DHT22;48483;44.640;7.494;2023-04-12T07:30:51;12.70;99.90
39957;DHT22;48483;44.640;7.494;2023-04-12T07:33:18;12.70;99.90
39957;DHT22;48483;44.640;7.494;2023-04-12T07:35:46;12.70;99.90
39957;DHT22;48483;44.640;7.494;2023-04-12T07:38:12;12.80;99.90
39957;DHT22;48483;44.640;7.494;2023-04-12T07:40:39;12.90;99.90
39957;DHT22;48483;44.640;7.494;2023-04-12T07:43:05;12.90;99.90
39957;DHT22;48483;44.640;7.494;2023-04-12T07:45:32;13.00;99.90
39957;DHT22;48483;44.640;7.494;2023-04-12T07:48:02;13.00;99.90
39957;DHT22;48483;44.640;7.494;2023-04-12T07:50:29;13.00;99.90
39957;DHT22;48483;44.640;7.494;2023-04-12T07:53:16;12.90;99.90
39957;DHT22;48483;44.640;7.494;2023-04-12T07:55:44;12.90;99.90
39957;DHT22;48483;44.640;7.494;2023-04-12T07:58:10;13.00;99.90
39957;DHT22;48483;44.640;7.494;2023-04-12T08:00:37;13.10;99.90
39957;DHT22;48483;44.640;7.494;2023-04-12T08:03:03;13.10;99.90
39957;DHT22;48483;44.640;7.494;2023-04-12T08:05:30;13.10;99.90
39957;DHT22;48483;44.640;7.494;2023-04-12T08:07:58;13.10;99.90
39957;DHT22;48483;44.640;7.494;2023-04-12T08:10:24;13.20;99.90
39957;DHT22;48483;44.640;7.494;2023-04-12T08:12:51;13.30;99.90
39957;DHT22;48483;44.640;7.494;2023-04-12T08:15:18;13.30;99.90
39957;DHT22;48483;44.640;7.494;2023-04-12T08:17:44;13.30;99.90
39957;DHT22;48483;44.640;7.494;2023-04-12T08:20:11;13.30;99.90
39957;DHT22;48483;44.640;7.494;2023-04-12T08:22:38;13.30;99.90
39957;DHT22;48483;44.640;7.494;2023-04-12T08:25:07;13.30;99.90
39957;DHT22;48483;44.640;7.494;2023-04-12T08:27:34;13.40;99.90
39957;DHT22;48483;44.640;7.494;2023-04-12T08:30:01;13.40;99.90
39957;DHT22;48483;44.640;7.494;2023-04-12T08:32:27;13.40;99.90
39957;DHT22;48483;44.640;7.494;2023-04-12T08:34:54;13.30;99.90
39957;DHT22;48483;44.640;7.494;2023-04-12T08:37:21;13.30;99.90
39957;DHT22;48483;44.640;7.494;2023-04-12T08:39:47;13.40;99.90
39957;DHT22;48483;44.640;7.494;2023-04-12T08:42:15;13.40;99.90
39957;DHT22;48483;44.640;7.494;2023-04-12T08:44:42;13.40;99.90
39957;DHT22;48483;44.640;7.494;2023-04-12T08:47:10;13.50;99.90
39957;DHT22;48483;44.640;7.494;2023-04-12T08:49:36;13.50;99.90
39957;DHT22;48483;44.640;7.494;2023-04-12T08:52:05;13.40;99.90
39957;DHT22;48483;44.640;7.494;2023-04-12T08:54:33;13.50;99.90
39957;DHT22;48483;44.640;7.494;2023-04-12T08:57:01;13.50;99.90
39957;DHT22;48483;44.640;7.494;2023-04-12T08:59:30;13.60;99.90
39957;DHT22;48483;44.640;7.494;2023-04-12T09:01:57;13.70;99.90
39957;DHT22;48483;44.640;7.494;2023-04-12T09:04:24;13.60;99.90
39957;DHT22;48483;44.640;7.494;2023-04-12T09:06:55;13.60;99.90
39957;DHT22;48483;44.640;7.494;2023-04-12T09:09:39;13.60;99.90
39957;DHT22;48483;44.640;7.494;2023-04-12T09:12:06;13.70;99.90
39957;DHT22;48483;44.640;7.494;2023-04-12T09:14:34;13.80;99.90
39957;DHT22;48483;44.640;7.494;2023-04-12T09:17:01;13.80;99.90
39957;DHT22;48483;44.640;7.494;2023-04-12T09:19:31;13.90;99.90
39957;DHT22;48483;44.640;7.494;2023-04-12T09:21:58;14.00;99.90
39957;DHT22;48483;44.640;7.494;2023-04-12T09:24:24;14.10;99.90
39957;DHT22;48483;44.640;7.494;2023-04-12T09:27:00;14.20;99.90
39957;DHT22;48483;44.640;7.494;2023-04-12T09:29:28;14.30;99.90
39957;DHT22;48483;44.640;7.494;2023-04-12T09:31:59;14.40;99.90
39957;DHT22;48483;44.640;7.494;2023-04-12T09:34:26;14.60;99.90
39957;DHT22;48483;44.640;7.494;2023-04-12T09:36:52;14.70;99.90
39957;DHT22;48483;44.640;7.494;2023-04-12T09:39:19;14.70;99.90
39957;DHT22;48483;44.640;7.494;2023-04-12T09:41:45;14.80;99.90
39957;DHT22;48483;44.640;7.494;2023-04-12T09:44:27;14.70;99.90
39957;DHT22;48483;44.640;7.494;2023-04-12T09:46:55;14.80;99.90
39957;DHT22;48483;44.640;7.494;2023-04-12T09:49:35;14.90;99.90
39957;DHT22;48483;44.640;7.494;2023-04-12T09:52:02;15.00;99.90
39957;DHT22;48483;44.640;7.494;2023-04-12T09:54:30;15.00;99.90
39957;DHT22;48483;44.640;7.494;2023-04-12T09:56:58;15.20;99.90
39957;DHT22;48483;44.640;7.494;2023-04-12T09:59:27;15.30;99.90
39957;DHT22;48483;44.640;7.494;2023-04-12T10:01:56;15.20;99.90
39957;DHT22;48483;44.640;7.494;2023-04-12T10:04:23;15.40;99.90
39957;DHT22;48483;44.640;7.494;2023-04-12T10:06:51;15.30;99.90
39957;DHT22;48483;44.640;7.494;2023-04-12T10:09:18;15.20;99.90
39957;DHT22;48483;44.640;7.494;2023-04-12T10:11:45;15.30;99.90
39957;DHT22;48483;44.640;7.494;2023-04-12T10:14:14;15.40;99.90
39957;DHT22;48483;44.640;7.494;2023-04-12T10:16:43;15.50;99.90
39957;DHT22;48483;44.640;7.494;2023-04-12T10:19:12;15.40;99.90
39957;DHT22;48483;44.640;7.494;2023-04-12T10:21:38;15.50;99.90
39957;DHT22;48483;44.640;7.494;2023-04-12T10:24:08;15.40;99.90
39957;DHT22;48483;44.640;7.494;2023-04-12T10:26:35;15.50;99.90
39957;DHT22;48483;44.640;7.494;2023-04-12T10:29:22;15.60;99.90
39957;DHT22;48483;44.640;7.494;2023-04-12T10:31:50;15.60;99.90
39957;DHT22;48483;44.640;7.494;2023-04-12T10:34:17;15.60;99.90
39957;DHT22;48483;44.640;7.494;2023-04-12T10:36:52;15.70;99.90
39957;DHT22;48483;44.640;7.494;2023-04-12T10:39:39;15.60;99.90
39957;DHT22;48483;44.640;7.494;2023-04-12T10:42:25;15.60;99.90
39957;DHT22;48483;44.640;7.494;2023-04-12T10:45:34;15.40;99.90
39957;DHT22;48483;44.640;7.494;2023-04-12T10:48:01;15.40;99.90
39957;DHT22;48483;44.640;7.494;2023-04-12T10:50:32;15.50;99.90
39957;DHT22;48483;44.640;7.494;2023-04-12T10:53:22;15.50;99.90
39957;DHT22;48483;44.640;7.494;2023-04-12T10:55:51;15.50;99.90
39957;DHT22;48483;44.640;7.494;2023-04-12T10:58:56;15.50;99.90
39957;DHT22;48483;44.640;7.494;2023-04-12T11:01:24;15.10;99.90
39957;DHT22;48483;44.640;7.494;2023-04-12T11:04:10;15.10;99.90
39957;DHT22;48483;44.640;7.494;2023-04-12T11:06:42;15.20;99.90
39957;DHT22;48483;44.640;7.494;2023-04-12T11:09:29;15.30;99.90
39957;DHT22;48483;44.640;7.494;2023-04-12T11:12:12;15.30;99.90
39957;DHT22;48483;44.640;7.494;2023-04-12T11:14:43;15.30;99.90
39957;DHT22;48483;44.640;7.494;2023-04-12T11:17:21;15.30;99.90
39957;DHT22;48483;44.640;7.494;2023-04-12T11:19:51;15.50;99.90
39957;DHT22;48483;44.640;7.494;2023-04-12T11:22:20;15.40;99.90
39957;DHT22;48483;44.640;7.494;2023-04-12T11:24:48;15.50;99.90
39957;DHT22;48483;44.640;7.494;2023-04-12T11:27:18;15.70;99.90
39957;DHT22;48483;44.640;7.494;2023-04-12T11:29:48;15.80;99.90
39957;DHT22;48483;44.640;7.494;2023-04-12T11:32:14;15.90;99.90
39957;DHT22;48483;44.640;7.494;2023-04-12T11:34:43;16.00;99.90
39957;DHT22;48483;44.640;7.494;2023-04-12T11:37:13;16.00;99.90
39957;DHT22;48483;44.640;7.494;2023-04-12T11:39:41;16.00;99.90
39957;DHT22;48483;44.640;7.494;2023-04-12T11:42:12;16.10;99.90
39957;DHT22;48483;44.640;7.494;2023-04-12T11:44:43;16.20;99.90
39957;DHT22;48483;44.640;7.494;2023-04-12T11:47:14;16.20;99.90
39957;DHT22;48483;44.640;7.494;2023-04-12T11:49:45;16.30;99.90
39957;DHT22;48483;44.640;7.494;2023-04-12T11:52:14;16.10;99.90
39957;DHT22;48483;44.640;7.494;2023-04-12T11:54:42;16.10;99.90
39957;DHT22;48483;44.640;7.494;2023-04-12T11:57:10;16.10;99.90
39957;DHT22;48483;44.640;7.494;2023-04-12T11:59:37;16.10;99.90
39957;DHT22;48483;44.640;7.494;2023-04-12T12:02:06;16.10;99.90
39957;DHT22;48483;44.640;7.494;2023-04-12T12:04:33;16.20;99.90
39957;DHT22;48483;44.640;7.494;2023-04-12T12:07:00;16.20;99.90
39957;DHT22;48483;44.640;7.494;2023-04-12T12:09:27;16.10;99.90
39957;DHT22;48483;44.640;7.494;2023-04-12T12:11:55;16.10;99.90
39957;DHT22;48483;44.640;7.494;2023-04-12T12:14:23;16.10;99.90
39957;DHT22;48483;44.640;7.494;2023-04-12T12:16:53;16.00;99.90
39957;DHT22;48483;44.640;7.494;2023-04-12T12:19:27;16.00;99.90
39957;DHT22;48483;44.640;7.494;2023-04-12T12:22:11;16.00;99.90
39957;DHT22;48483;44.640;7.494;2023-04-12T12:24:38;16.10;99.90
39957;DHT22;48483;44.640;7.494;2023-04-12T12:27:05;16.10;99.90
39957;DHT22;48483;44.640;7.494;2023-04-12T12:29:35;16.20;99.90
39957;DHT22;48483;44.640;7.494;2023-04-12T12:32:09;16.30;99.90
39957;DHT22;48483;44.640;7.494;2023-04-12T12:34:37;16.10;99.90
39957;DHT22;48483;44.640;7.494;2023-04-12T12:37:07;16.10;99.90
39957;DHT22;48483;44.640;7.494;2023-04-12T12:39:34;16.20;99.90
39957;DHT22;48483;44.640;7.494;2023-04-12T12:42:01;16.20;99.90
39957;DHT22;48483;44.640;7.494;2023-04-12T12:44:31;16.20;99.90
39957;DHT22;48483;44.640;7.494;2023-04-12T12:46:59;16.10;99.90
39957;DHT22;48483;44.640;7.494;2023-04-12T12:49:27;16.20;99.90
39957;DHT22;48483;44.640;7.494;2023-04-12T12:51:55;16.30;99.90
39957;DHT22;48483;44.640;7.494;2023-04-12T12:54:22;16.30;99.90
39957;DHT22;48483;44.640;7.494;2023-04-12T12:56:48;16.00;99.90
39957;DHT22;48483;44.640;7.494;2023-04-12T12:59:15;16.10;99.90
39957;DHT22;48483;44.640;7.494;2023-04-12T13:01:41;16.10;99.90
39957;DHT22;48483;44.640;7.494;2023-04-12T13:04:08;15.90;99.90
39957;DHT22;48483;44.640;7.494;2023-04-12T13:06:34;16.00;99.90
39957;DHT22;48483;44.640;7.494;2023-04-12T13:09:03;16.00;99.90
39957;DHT22;48483;44.640;7.494;2023-04-12T13:11:30;16.00;99.90
39957;DHT22;48483;44.640;7.494;2023-04-12T13:13:57;16.10;99.90
39957;DHT22;48483;44.640;7.494;2023-04-12T13:16:24;16.10;99.90
39957;DHT22;48483;44.640;7.494;2023-04-12T13:18:50;16.10;99.90
39957;DHT22;48483;44.640;7.494;2023-04-12T13:21:17;16.10;99.90
39957;DHT22;48483;44.640;7.494;2023-04-12T13:23:43;16.10;99.90
39957;DHT22;48483;44.640;7.494;2023-04-12T13:26:11;16.20;99.90
39957;DHT22;48483;44.640;7.494;2023-04-12T13:28:38;16.20;99.90
39957;DHT22;48483;44.640;7.494;2023-04-12T13:31:05;16.10;99.90
39957;DHT22;48483;44.640;7.494;2023-04-12T13:33:31;16.00;99.90
39957;DHT22;48483;44.640;7.494;2023-04-12T13:35:58;16.00;99.90
39957;DHT22;48483;44.640;7.494;2023-04-12T13:38:24;16.00;99.90
39957;DHT22;48483;44.640;7.494;2023-04-12T13:40:51;15.90;99.90
39957;DHT22;48483;44.640;7.494;2023-04-12T13:43:19;15.80;99.90
39957;DHT22;48483;44.640;7.494;2023-04-12T13:45:45;15.70;99.90
39957;DHT22;48483;44.640;7.494;2023-04-12T13:48:12;15.80;99.90
39957;DHT22;48483;44.640;7.494;2023-04-12T13:50:38;15.80;99.90
39957;DHT22;48483;44.640;7.494;2023-04-12T13:53:05;15.90;99.90
39957;DHT22;48483;44.640;7.494;2023-04-12T13:55:32;16.00;99.90
39957;DHT22;48483;44.640;7.494;2023-04-12T13:57:58;15.90;99.90
39957;DHT22;48483;44.640;7.494;2023-04-12T14:00:26;15.80;99.90
39957;DHT22;48483;44.640;7.494;2023-04-12T14:02:53;15.70;99.90
39957;DHT22;48483;44.640;7.494;2023-04-12T14:05:19;15.80;99.90
39957;DHT22;48483;44.640;7.494;2023-04-12T14:07:46;15.80;99.90
39957;DHT22;48483;44.640;7.494;2023-04-12T14:10:15;15.80;99.90
39957;DHT22;48483;44.640;7.494;2023-04-12T14:12:41;15.70;99.90
39957;DHT22;48483;44.640;7.494;2023-04-12T14:15:08;15.80;99.90
39957;DHT22;48483;44.640;7.494;2023-04-12T14:17:36;15.80;99.90
39957;DHT22;48483;44.640;7.494;2023-04-12T14:20:03;15.90;99.90
39957;DHT22;48483;44.640;7.494;2023-04-12T14:22:33;15.90;99.90
39957;DHT22;48483;44.640;7.494;2023-04-12T14:25:00;15.80;99.90
39957;DHT22;48483;44.640;7.494;2023-04-12T14:27:27;15.90;99.90
39957;DHT22;48483;44.640;7.494;2023-04-12T14:29:53;15.90;99.90
39957;DHT22;48483;44.640;7.494;2023-04-12T14:32:20;15.70;99.90
39957;DHT22;48483;44.640;7.494;2023-04-12T14:34:48;15.70;99.90
39957;DHT22;48483;44.640;7.494;2023-04-12T14:37:14;15.70;99.90
39957;DHT22;48483;44.640;7.494;2023-04-12T14:39:41;15.70;99.90
39957;DHT22;48483;44.640;7.494;2023-04-12T14:42:09;15.70;99.90
39957;DHT22;48483;44.640;7.494;2023-04-12T14:44:38;15.60;99.90
39957;DHT22;48483;44.640;7.494;2023-04-12T14:47:05;15.60;99.90
39957;DHT22;48483;44.640;7.494;2023-04-12T14:49:31;15.60;99.90
39957;DHT22;48483;44.640;7.494;2023-04-12T14:51:59;15.60;99.90
39957;DHT22;48483;44.640;7.494;2023-04-12T14:54:26;15.60;99.90
39957;DHT22;48483;44.640;7.494;2023-04-12T14:56:53;15.50;99.90
39957;DHT22;48483;44.640;7.494;2023-04-12T14:59:20;15.50;99.90
39957;DHT22;48483;44.640;7.494;2023-04-12T15:01:47;15.50;99.90
39957;DHT22;48483;44.640;7.494;2023-04-12T15:04:14;15.50;99.90
39957;DHT22;48483;44.640;7.494;2023-04-12T15:06:40;15.40;99.90
39957;DHT22;48483;44.640;7.494;2023-04-12T15:09:09;15.40;99.90
39957;DHT22;48483;44.640;7.494;2023-04-12T15:11:36;15.30;99.90
39957;DHT22;48483;44.640;7.494;2023-04-12T15:14:03;15.40;99.90
39957;DHT22;48483;44.640;7.494;2023-04-12T15:16:31;15.30;99.90
39957;DHT22;48483;44.640;7.494;2023-04-12T15:19:01;15.30;99.90
39957;DHT22;48483;44.640;7.494;2023-04-12T15:21:28;15.30;99.90
39957;DHT22;48483;44.640;7.494;2023-04-12T15:23:54;15.10;99.90
39957;DHT22;48483;44.640;7.494;2023-04-12T15:26:24;15.10;99.90
39957;DHT22;48483;44.640;7.494;2023-04-12T15:28:50;15.10;99.90
39957;DHT22;48483;44.640;7.494;2023-04-12T15:31:17;15.10;99.90
39957;DHT22;48483;44.640;7.494;2023-04-12T15:33:43;15.10;99.90
39957;DHT22;48483;44.640;7.494;2023-04-12T15:36:12;15.10;99.90
39957;DHT22;48483;44.640;7.494;2023-04-12T15:38:42;15.00;99.90
39957;DHT22;48483;44.640;7.494;2023-04-12T15:41:09;15.00;99.90